Time;durP1;ratioP1;P1;durP2;ratioP2;P2;SDS_P1;SDS_P2;PMS_P1;PMS_P2;Temp;Humidity;BMP_temperature;BMP_pressure;BME280_temperature;BME280_humidity;BME280_pressure;Samples;Min_cycle;Max_cycle;Signal;HPM_P1;HPM_P2
2022/01/01 00:02:22;;;;;;;41.92;33.15;;;;;;;;;;4990903;28;20088;-69
2022/01/01 00:05:08;;;;;;;55.88;38.58;;;;;;;;;;4966594;28;20088;-69
2022/01/01 00:07:53;;;;;;;53.60;39.78;;;;;;;;;;4974327;28;20031;-72
2022/01/01 00:10:38;;;;;;;48.53;39.25;;;;;;;;;;4964474;28;20034;-74
2022/01/01 00:13:24;;;;;;;58.00;44.00;;;;;;;;;;4990521;28;20489;-73
2022/01/01 00:16:09;;;;;;;54.45;41.40;;;;;;;;;;4977822;28;20120;-73
2022/01/01 00:18:54;;;;;;;50.47;38.97;;;;;;;;;;4963533;28;20363;-75
2022/01/01 00:21:41;;;;;;;49.85;40.38;;;;;;;;;;4977856;28;20080;-73
2022/01/01 00:24:26;;;;;;;52.63;41.42;;;;;;;;;;4964725;28;20041;-74
2022/01/01 00:27:12;;;;;;;55.28;45.50;;;;;;;;;;4991212;28;20026;-65
2022/01/01 00:29:57;;;;;;;60.03;48.55;;;;;;;;;;4983328;28;20574;-66
2022/01/01 00:32:42;;;;;;;73.00;54.35;;;;;;;;;;4976688;28;20049;-67
2022/01/01 00:35:27;;;;;;;70.47;53.30;;;;;;;;;;4977025;28;20605;-68
2022/01/01 00:38:13;;;;;;;79.57;60.65;;;;;;;;;;4990170;28;20116;-68
2022/01/01 00:40:58;;;;;;;77.60;59.15;;;;;;;;;;4963979;28;20022;-68
2022/01/01 00:43:43;;;;;;;72.03;57.28;;;;;;;;;;4971504;28;20018;-63
2022/01/01 00:46:28;;;;;;;68.38;53.83;;;;;;;;;;4977332;28;20033;-73
2022/01/01 00:49:14;;;;;;;80.22;61.58;;;;;;;;;;4968586;28;20027;-68
2022/01/01 00:51:59;;;;;;;82.40;62.55;;;;;;;;;;4990580;28;20114;-69
2022/01/01 00:54:44;;;;;;;62.15;48.03;;;;;;;;;;4971863;28;20441;-68
2022/01/01 00:57:29;;;;;;;64.68;50.25;;;;;;;;;;4976712;28;20386;-68
2022/01/01 01:00:15;;;;;;;60.42;47.50;;;;;;;;;;4981479;28;20050;-68
2022/01/01 01:03:00;;;;;;;57.78;44.53;;;;;;;;;;4964748;28;20030;-72
2022/01/01 01:05:46;;;;;;;56.53;42.55;;;;;;;;;;4963231;28;20129;-73
2022/01/01 01:08:31;;;;;;;51.60;41.97;;;;;;;;;;4976890;28;20447;-76
2022/01/01 01:11:16;;;;;;;54.35;41.20;;;;;;;;;;4973507;28;20084;-75
2022/01/01 01:14:07;;;;;;;44.83;37.17;;;;;;;;;;4976356;28;20401;-73
2022/01/01 01:16:53;;;;;;;39.33;30.08;;;;;;;;;;4976678;28;20044;-72
2022/01/01 01:19:38;;;;;;;48.47;38.95;;;;;;;;;;4976338;28;20061;-73
2022/01/01 01:22:26;;;;;;;51.15;39.65;;;;;;;;;;4963396;28;20030;-66
2022/01/01 01:25:12;;;;;;;45.55;36.80;;;;;;;;;;4989567;28;20109;-76
2022/01/01 01:28:06;;;;;;;47.28;36.08;;;;;;;;;;4976853;28;20030;-73
2022/01/01 01:30:51;;;;;;;47.38;34.83;;;;;;;;;;4975948;28;20184;-72
2022/01/01 01:33:37;;;;;;;53.22;39.53;;;;;;;;;;4970506;28;20050;-72
2022/01/01 01:36:22;;;;;;;46.38;35.97;;;;;;;;;;4975745;28;20038;-73
2022/01/01 01:39:07;;;;;;;48.63;34.53;;;;;;;;;;4976545;28;20022;-63
2022/01/01 01:41:53;;;;;;;45.83;34.80;;;;;;;;;;4975342;28;20046;-62
2022/01/01 01:44:42;;;;;;;43.22;35.72;;;;;;;;;;4962866;28;20037;-70
2022/01/01 01:47:34;;;;;;;49.65;36.83;;;;;;;;;;4976248;28;20140;-68
2022/01/01 01:50:20;;;;;;;44.42;34.78;;;;;;;;;;4975463;28;20034;-69
2022/01/01 01:53:06;;;;;;;43.97;32.28;;;;;;;;;;4975902;28;20426;-73
2022/01/01 01:55:52;;;;;;;44.80;32.42;;;;;;;;;;4974974;28;20070;-73
2022/01/01 01:58:37;;;;;;;43.45;33.25;;;;;;;;;;4976057;28;20113;-63
2022/01/01 02:01:24;;;;;;;42.80;32.15;;;;;;;;;;4974832;28;20078;-64
2022/01/01 02:04:09;;;;;;;40.47;32.15;;;;;;;;;;4980095;28;20026;-63
2022/01/01 02:06:55;;;;;;;38.97;28.33;;;;;;;;;;4977101;28;20064;-66
2022/01/01 02:09:40;;;;;;;33.70;25.35;;;;;;;;;;4975616;28;20032;-62
2022/01/01 02:12:25;;;;;;;34.30;25.05;;;;;;;;;;4974205;28;20026;-63
2022/01/01 02:15:26;;;;;;;31.33;22.70;;;;;;;;;;4962585;28;20018;-63
2022/01/01 02:18:12;;;;;;;35.75;25.50;;;;;;;;;;4974338;28;20543;-71
2022/01/01 02:20:57;;;;;;;31.52;25.50;;;;;;;;;;4962101;28;20260;-65
2022/01/01 02:23:44;;;;;;;33.53;24.05;;;;;;;;;;4961579;28;20035;-63
2022/01/01 02:26:34;;;;;;;30.63;23.27;;;;;;;;;;4988963;28;20045;-61
2022/01/01 02:29:19;;;;;;;32.40;23.67;;;;;;;;;;4967080;28;20058;-66
2022/01/01 02:32:07;;;;;;;30.55;22.63;;;;;;;;;;4960988;28;20042;-62
2022/01/01 02:34:52;;;;;;;27.08;20.00;;;;;;;;;;4975511;28;20038;-68
2022/01/01 02:37:38;;;;;;;29.85;21.40;;;;;;;;;;4995910;28;20174;-71
2022/01/01 02:40:23;;;;;;;28.05;20.38;;;;;;;;;;4975240;28;20095;-72
2022/01/01 02:43:08;;;;;;;25.25;18.17;;;;;;;;;;4967539;28;20220;-73
2022/01/01 02:45:54;;;;;;;27.48;18.70;;;;;;;;;;4950025;28;20026;-71
2022/01/01 02:48:39;;;;;;;28.33;20.63;;;;;;;;;;4974195;28;20109;-73
2022/01/01 02:51:25;;;;;;;26.63;18.02;;;;;;;;;;4975325;28;20054;-73
2022/01/01 02:54:10;;;;;;;27.02;19.85;;;;;;;;;;4969704;28;20390;-64
2022/01/01 02:56:55;;;;;;;27.17;18.40;;;;;;;;;;4975058;28;20034;-72
2022/01/01 02:59:40;;;;;;;28.20;19.15;;;;;;;;;;4974478;28;20144;-70
2022/01/01 03:02:26;;;;;;;30.27;21.38;;;;;;;;;;4974804;28;20041;-72
2022/01/01 03:05:11;;;;;;;32.03;21.00;;;;;;;;;;4987859;28;20022;-70
2022/01/01 03:07:57;;;;;;;23.63;18.15;;;;;;;;;;4978309;28;20021;-69
2022/01/01 03:10:43;;;;;;;25.33;18.65;;;;;;;;;;4969915;28;20038;-61
2022/01/01 03:13:29;;;;;;;26.08;18.45;;;;;;;;;;4988586;28;20026;-64
2022/01/01 03:16:14;;;;;;;24.25;18.13;;;;;;;;;;4978423;28;20122;-61
2022/01/01 03:19:00;;;;;;;24.33;18.88;;;;;;;;;;4975258;28;20029;-60
2022/01/01 03:21:45;;;;;;;28.52;18.80;;;;;;;;;;5006018;28;20034;-63
2022/01/01 03:24:30;;;;;;;22.08;17.38;;;;;;;;;;4991098;28;20483;-63
2022/01/01 03:27:15;;;;;;;25.08;16.23;;;;;;;;;;4978459;28;20553;-62
2022/01/01 03:30:00;;;;;;;25.17;17.90;;;;;;;;;;4978288;28;20034;-73
2022/01/01 03:32:46;;;;;;;25.15;16.35;;;;;;;;;;4978665;28;20175;-62
2022/01/01 03:35:31;;;;;;;21.58;14.85;;;;;;;;;;4977725;28;20040;-62
2022/01/01 03:38:17;;;;;;;26.20;16.30;;;;;;;;;;4978139;28;20500;-64
2022/01/01 03:41:02;;;;;;;23.17;15.57;;;;;;;;;;4982137;28;20054;-62
2022/01/01 03:43:47;;;;;;;24.52;16.13;;;;;;;;;;4962886;28;20031;-62
2022/01/01 03:46:33;;;;;;;20.20;14.32;;;;;;;;;;4987222;28;20477;-66
2022/01/01 03:49:18;;;;;;;22.58;15.13;;;;;;;;;;4992101;28;20030;-63
2022/01/01 03:52:03;;;;;;;21.17;13.93;;;;;;;;;;4958197;28;20471;-66
2022/01/01 03:54:48;;;;;;;21.15;13.35;;;;;;;;;;4959401;28;20627;-66
2022/01/01 03:57:34;;;;;;;23.42;15.57;;;;;;;;;;4958803;28;20035;-67
2022/01/01 04:00:19;;;;;;;29.48;18.08;;;;;;;;;;4982454;28;20022;-67
2022/01/01 04:03:05;;;;;;;20.77;15.73;;;;;;;;;;4977850;28;20072;-65
2022/01/01 04:05:50;;;;;;;25.45;17.40;;;;;;;;;;4977326;28;20065;-66
2022/01/01 04:08:35;;;;;;;25.20;15.88;;;;;;;;;;4978079;28;20465;-68
2022/01/01 04:11:21;;;;;;;21.20;14.65;;;;;;;;;;4965576;28;20084;-70
2022/01/01 04:14:11;;;;;;;20.98;13.85;;;;;;;;;;4983556;28;20058;-70
2022/01/01 04:16:58;;;;;;;;;;;;;;;;;;4971608;28;20038;-72
2022/01/01 04:19:43;;;;;;;21.38;14.80;;;;;;;;;;4958550;28;20006;-69
2022/01/01 04:22:28;;;;;;;22.80;15.30;;;;;;;;;;4969807;28;20147;-69
2022/01/01 04:25:13;;;;;;;23.42;14.63;;;;;;;;;;4976498;28;20026;-70
2022/01/01 04:27:58;;;;;;;19.73;12.70;;;;;;;;;;4977157;28;20032;-73
2022/01/01 04:30:44;;;;;;;23.35;15.45;;;;;;;;;;4978025;28;20050;-72
2022/01/01 04:33:29;;;;;;;20.17;14.07;;;;;;;;;;4976880;28;20085;-73
2022/01/01 04:36:14;;;;;;;19.20;14.18;;;;;;;;;;4991169;28;20037;-73
2022/01/01 04:38:59;;;;;;;18.45;12.52;;;;;;;;;;4977069;28;20452;-72
2022/01/01 04:41:45;;;;;;;21.35;13.32;;;;;;;;;;4977694;28;20036;-73
2022/01/01 04:44:30;;;;;;;21.02;13.65;;;;;;;;;;4982167;28;20029;-69
2022/01/01 04:47:15;;;;;;;16.15;11.23;;;;;;;;;;4976960;28;20030;-64
2022/01/01 04:50:02;;;;;;;18.52;11.48;;;;;;;;;;4977387;28;20194;-64
2022/01/01 04:52:48;;;;;;;18.23;12.38;;;;;;;;;;4963249;28;20037;-62
2022/01/01 04:55:33;;;;;;;21.95;12.98;;;;;;;;;;4977232;28;20445;-64
2022/01/01 04:58:19;;;;;;;19.42;12.48;;;;;;;;;;4976269;28;20485;-62
2022/01/01 05:01:04;;;;;;;20.90;13.27;;;;;;;;;;4976853;28;20109;-63
2022/01/01 05:03:49;;;;;;;22.95;12.27;;;;;;;;;;4967104;28;20039;-72
2022/01/01 05:06:35;;;;;;;18.70;11.27;;;;;;;;;;4957805;28;20015;-64
2022/01/01 05:09:20;;;;;;;19.65;11.63;;;;;;;;;;4982878;28;20042;-64
2022/01/01 05:12:06;;;;;;;14.80;10.00;;;;;;;;;;4976835;28;20577;-62
2022/01/01 05:14:51;;;;;;;15.82;9.40;;;;;;;;;;4989665;28;20080;-63
2022/01/01 05:17:36;;;;;;;16.15;9.30;;;;;;;;;;4984047;28;20041;-63
2022/01/01 05:20:22;;;;;;;16.52;9.65;;;;;;;;;;4976184;28;20088;-74
2022/01/01 05:23:07;;;;;;;14.73;8.95;;;;;;;;;;4963453;28;20026;-71
2022/01/01 05:25:52;;;;;;;14.70;9.32;;;;;;;;;;4990118;28;20030;-70
2022/01/01 05:28:37;;;;;;;13.25;8.52;;;;;;;;;;4976282;28;20034;-71
2022/01/01 05:31:23;;;;;;;14.50;9.15;;;;;;;;;;4963209;28;20505;-69
2022/01/01 05:34:08;;;;;;;15.93;9.60;;;;;;;;;;4989492;28;20065;-70
2022/01/01 05:36:54;;;;;;;15.32;7.65;;;;;;;;;;4962677;28;20038;-69
2022/01/01 05:39:39;;;;;;;11.93;7.90;;;;;;;;;;4989386;28;20026;-71
2022/01/01 05:42:24;;;;;;;14.07;8.68;;;;;;;;;;4976779;28;20069;-67
2022/01/01 05:45:10;;;;;;;15.13;8.63;;;;;;;;;;4989274;28;20110;-69
2022/01/01 05:47:55;;;;;;;14.10;9.20;;;;;;;;;;4993569;28;20018;-69
2022/01/01 05:50:41;;;;;;;14.32;8.35;;;;;;;;;;4991943;28;20466;-69
2022/01/01 05:53:26;;;;;;;17.77;8.50;;;;;;;;;;4990127;28;20037;-68
2022/01/01 05:56:11;;;;;;;12.27;7.60;;;;;;;;;;4989030;28;20034;-67
2022/01/01 05:58:56;;;;;;;12.07;7.70;;;;;;;;;;4976244;28;20054;-62
2022/01/01 06:01:42;;;;;;;14.48;9.05;;;;;;;;;;4975155;28;20065;-64
2022/01/01 06:04:27;;;;;;;13.45;7.30;;;;;;;;;;4975957;28;20034;-62
2022/01/01 06:07:12;;;;;;;16.70;7.07;;;;;;;;;;4975226;28;20089;-63
2022/01/01 06:09:57;;;;;;;11.70;7.45;;;;;;;;;;4976031;28;20393;-63
2022/01/01 06:12:43;;;;;;;12.55;7.07;;;;;;;;;;4989321;28;20121;-61
2022/01/01 06:15:28;;;;;;;13.40;7.88;;;;;;;;;;4975235;28;20460;-67
2022/01/01 06:18:13;;;;;;;14.30;7.40;;;;;;;;;;4956705;28;20026;-67
2022/01/01 06:20:59;;;;;;;13.50;8.15;;;;;;;;;;4980409;28;20322;-68
2022/01/01 06:23:44;;;;;;;13.88;7.72;;;;;;;;;;4975837;28;20053;-67
2022/01/01 06:26:30;;;;;;;11.85;6.75;;;;;;;;;;4974945;28;20024;-67
2022/01/01 06:29:15;;;;;;;11.40;6.85;;;;;;;;;;4989297;28;20039;-67
2022/01/01 06:32:00;;;;;;;12.82;6.60;;;;;;;;;;4974633;28;20023;-66
2022/01/01 06:34:45;;;;;;;11.05;6.72;;;;;;;;;;4975850;28;20419;-70
2022/01/01 06:37:31;;;;;;;11.65;6.63;;;;;;;;;;4961157;28;20035;-67
2022/01/01 06:40:16;;;;;;;14.27;7.05;;;;;;;;;;4975520;28;20031;-67
2022/01/01 06:43:01;;;;;;;13.80;6.72;;;;;;;;;;4988176;28;20474;-66
2022/01/01 06:45:46;;;;;;;12.45;7.32;;;;;;;;;;4975386;28;20055;-66
2022/01/01 06:48:32;;;;;;;11.20;7.30;;;;;;;;;;4954447;28;20042;-69
2022/01/01 06:51:17;;;;;;;12.00;7.00;;;;;;;;;;4957121;28;20045;-67
2022/01/01 06:54:03;;;;;;;12.00;6.43;;;;;;;;;;4980352;28;20034;-67
2022/01/01 06:56:48;;;;;;;13.90;7.13;;;;;;;;;;4974835;28;20497;-64
2022/01/01 06:59:34;;;;;;;11.10;6.63;;;;;;;;;;4961372;28;20077;-65
2022/01/01 07:02:19;;;;;;;11.30;6.53;;;;;;;;;;4973984;28;20531;-63
2022/01/01 07:05:04;;;;;;;10.63;5.95;;;;;;;;;;4975125;28;20035;-63
2022/01/01 07:07:49;;;;;;;10.40;5.93;;;;;;;;;;4987728;28;20091;-64
2022/01/01 07:10:35;;;;;;;10.82;6.78;;;;;;;;;;4974849;28;20041;-69
2022/01/01 07:13:20;;;;;;;10.55;6.90;;;;;;;;;;4987987;28;20065;-66
2022/01/01 07:16:06;;;;;;;10.50;6.45;;;;;;;;;;4988476;28;20026;-67
2022/01/01 07:18:51;;;;;;;11.25;7.30;;;;;;;;;;4974293;28;20041;-66
2022/01/01 07:21:36;;;;;;;11.85;7.18;;;;;;;;;;4988598;28;20025;-66
2022/01/01 07:24:21;;;;;;;11.90;6.45;;;;;;;;;;4993216;28;20027;-65
2022/01/01 07:27:07;;;;;;;10.55;6.07;;;;;;;;;;4976245;28;20042;-69
2022/01/01 07:29:52;;;;;;;13.75;6.55;;;;;;;;;;4954576;28;20470;-69
2022/01/01 07:32:38;;;;;;;9.15;5.72;;;;;;;;;;4968885;28;20080;-62
2022/01/01 07:35:23;;;;;;;13.65;7.10;;;;;;;;;;4983956;28;20057;-63
2022/01/01 07:38:08;;;;;;;10.70;6.18;;;;;;;;;;4974956;28;20346;-62
2022/01/01 07:40:55;;;;;;;11.68;5.97;;;;;;;;;;4987445;28;20193;-61
2022/01/01 07:43:40;;;;;;;11.10;6.78;;;;;;;;;;4988248;28;20080;-61
2022/01/01 07:46:25;;;;;;;11.80;6.57;;;;;;;;;;4961099;28;20609;-63
2022/01/01 07:49:11;;;;;;;11.07;6.82;;;;;;;;;;4973899;28;20022;-73
2022/01/01 07:51:56;;;;;;;11.32;6.07;;;;;;;;;;4974730;28;20023;-73
2022/01/01 07:54:41;;;;;;;12.82;6.72;;;;;;;;;;4960674;28;20022;-72
2022/01/01 07:57:26;;;;;;;12.32;7.10;;;;;;;;;;4982511;28;20038;-73
2022/01/01 08:00:12;;;;;;;12.15;6.75;;;;;;;;;;4975622;28;20049;-75
2022/01/01 08:02:57;;;;;;;9.52;5.55;;;;;;;;;;4964585;28;20022;-72
2022/01/01 08:05:42;;;;;;;10.45;6.35;;;;;;;;;;4977424;28;20405;-62
2022/01/01 08:08:28;;;;;;;9.95;6.03;;;;;;;;;;4978090;28;20030;-68
2022/01/01 08:11:13;;;;;;;11.65;5.85;;;;;;;;;;4977153;28;20579;-70
2022/01/01 08:13:58;;;;;;;12.20;6.65;;;;;;;;;;4978121;28;20130;-70
2022/01/01 08:17:01;;;;;;;8.23;5.55;;;;;;;;;;4976629;28;20482;-70
2022/01/01 08:19:46;;;;;;;7.53;4.90;;;;;;;;;;4977784;28;20061;-69
2022/01/01 08:22:31;;;;;;;10.70;5.40;;;;;;;;;;4976917;28;20041;-70
2022/01/01 08:25:17;;;;;;;10.80;6.35;;;;;;;;;;4977750;28;20030;-66
2022/01/01 08:28:02;;;;;;;9.80;5.68;;;;;;;;;;4981880;28;20033;-62
2022/01/01 08:30:47;;;;;;;8.73;6.03;;;;;;;;;;4992949;28;20030;-64
2022/01/01 08:33:33;;;;;;;10.00;6.15;;;;;;;;;;4963979;28;20069;-62
2022/01/01 08:36:18;;;;;;;9.25;5.60;;;;;;;;;;4976759;28;20760;-63
2022/01/01 08:39:05;;;;;;;7.95;4.97;;;;;;;;;;4977513;28;20106;-62
2022/01/01 08:41:50;;;;;;;11.70;6.00;;;;;;;;;;4976662;28;20038;-65
2022/01/01 08:44:36;;;;;;;11.00;5.18;;;;;;;;;;4977312;28;20393;-66
2022/01/01 08:47:25;;;;;;;8.15;4.65;;;;;;;;;;4968426;28;20390;-63
2022/01/01 08:50:11;;;;;;;12.80;4.57;;;;;;;;;;4958094;28;20089;-63
2022/01/01 08:52:57;;;;;;;10.02;5.40;;;;;;;;;;4982895;28;20125;-61
2022/01/01 08:55:43;;;;;;;11.55;5.28;;;;;;;;;;4977045;28;20121;-62
2022/01/01 08:58:28;;;;;;;9.90;5.32;;;;;;;;;;4976487;28;20354;-62
2022/01/01 09:01:13;;;;;;;8.68;5.00;;;;;;;;;;4976718;28;20022;-62
2022/01/01 09:03:59;;;;;;;10.57;5.25;;;;;;;;;;4956776;28;20031;-74
2022/01/01 09:06:44;;;;;;;11.30;5.70;;;;;;;;;;4971606;28;20412;-72
2022/01/01 09:09:29;;;;;;;10.02;5.88;;;;;;;;;;4989803;28;20030;-72
2022/01/01 09:12:14;;;;;;;10.10;5.70;;;;;;;;;;4989846;28;20034;-74
2022/01/01 09:15:00;;;;;;;8.55;5.55;;;;;;;;;;4957788;28;20041;-73
2022/01/01 09:17:45;;;;;;;8.27;5.10;;;;;;;;;;4972618;28;20073;-73
2022/01/01 09:20:30;;;;;;;11.55;5.68;;;;;;;;;;4976745;28;20025;-68
2022/01/01 09:23:16;;;;;;;8.60;4.88;;;;;;;;;;4975997;28;20433;-68
2022/01/01 09:26:01;;;;;;;8.88;5.47;;;;;;;;;;4976395;28;20022;-68
2022/01/01 09:28:47;;;;;;;10.65;5.63;;;;;;;;;;4989073;28;20109;-69
2022/01/01 09:31:32;;;;;;;9.32;5.28;;;;;;;;;;4978544;28;20069;-67
2022/01/01 09:34:17;;;;;;;12.65;5.40;;;;;;;;;;4980291;28;20026;-66
2022/01/01 09:37:03;;;;;;;10.35;5.55;;;;;;;;;;4976362;28;20038;-67
2022/01/01 09:39:48;;;;;;;8.95;5.43;;;;;;;;;;4965641;28;20037;-69
2022/01/01 09:42:34;;;;;;;10.40;5.32;;;;;;;;;;4976294;28;20113;-70
2022/01/01 09:45:20;;;;;;;8.90;5.30;;;;;;;;;;4963740;28;20038;-68
2022/01/01 09:48:05;;;;;;;9.93;4.72;;;;;;;;;;4957020;28;20037;-68
2022/01/01 09:50:54;;;;;;;7.90;4.50;;;;;;;;;;4974027;28;20368;-68
2022/01/01 09:53:39;;;;;;;10.13;5.07;;;;;;;;;;4989670;28;20026;-68
2022/01/01 09:56:24;;;;;;;8.18;5.18;;;;;;;;;;4962708;28;20037;-66
2022/01/01 09:59:12;;;;;;;8.85;4.60;;;;;;;;;;4975558;28;20027;-73
2022/01/01 10:01:57;;;;;;;6.65;3.90;;;;;;;;;;4986724;28;20200;-72
2022/01/01 10:04:44;;;;;;;25.38;19.80;;;;;;;;;;4966427;28;20369;-74
2022/01/01 10:07:29;;;;;;;23.65;16.20;;;;;;;;;;4962736;28;20023;-73
2022/01/01 10:10:25;;;;;;;14.90;10.18;;;;;;;;;;4974938;28;20045;-74
2022/01/01 10:13:12;;;;;;;11.13;5.35;;;;;;;;;;4975970;28;20039;-74
2022/01/01 10:15:58;;;;;;;6.90;4.38;;;;;;;;;;4974938;28;20034;-73
2022/01/01 10:18:45;;;;;;;8.52;4.88;;;;;;;;;;4989438;28;20108;-73
2022/01/01 10:21:36;;;;;;;7.22;4.40;;;;;;;;;;4988620;28;20037;-72
2022/01/01 10:24:39;;;;;;;6.70;4.30;;;;;;;;;;4975061;28;20026;-74
2022/01/01 10:27:43;;;;;;;8.35;4.57;;;;;;;;;;4988614;28;20113;-72
2022/01/01 10:30:28;;;;;;;9.60;5.00;;;;;;;;;;4988501;28;20151;-74
2022/01/01 10:33:21;;;;;;;11.45;7.20;;;;;;;;;;4976099;28;20018;-71
2022/01/01 10:36:07;;;;;;;11.88;6.28;;;;;;;;;;4979182;28;20045;-72
2022/01/01 10:38:54;;;;;;;10.75;4.88;;;;;;;;;;4977986;28;20042;-74
2022/01/01 10:41:46;;;;;;;11.73;5.10;;;;;;;;;;4988943;28;20421;-73
2022/01/01 10:44:33;;;;;;;8.90;4.82;;;;;;;;;;4975330;28;20583;-75
2022/01/01 10:47:26;;;;;;;8.27;4.43;;;;;;;;;;4974516;28;20030;-73
2022/01/01 10:53:08;;;;;;;7.38;4.50;;;;;;;;;;4974681;28;20065;-64
2022/01/01 10:55:55;;;;;;;6.15;4.10;;;;;;;;;;4982549;28;20035;-66
2022/01/01 10:58:41;;;;;;;8.57;4.15;;;;;;;;;;4956500;28;20125;-63
2022/01/01 11:01:26;;;;;;;8.13;3.65;;;;;;;;;;4982008;28;20464;-65
2022/01/01 11:04:12;;;;;;;7.93;3.50;;;;;;;;;;4969927;28;20096;-67
2022/01/01 11:06:57;;;;;;;8.20;5.10;;;;;;;;;;4988051;28;20030;-65
2022/01/01 11:09:43;;;;;;;8.50;4.15;;;;;;;;;;4982520;28;20072;-62
2022/01/01 11:12:29;;;;;;;7.35;3.75;;;;;;;;;;4988080;28;20092;-63
2022/01/01 11:15:17;;;;;;;6.63;3.70;;;;;;;;;;5027641;28;20116;-62
2022/01/01 11:18:02;;;;;;;7.25;4.00;;;;;;;;;;5026759;28;20068;-62
2022/01/01 11:20:49;;;;;;;15.00;8.73;;;;;;;;;;5028146;28;20115;-62
2022/01/01 11:23:34;;;;;;;14.50;8.68;;;;;;;;;;5025704;28;20512;-61
2022/01/01 11:26:20;;;;;;;7.93;4.65;;;;;;;;;;5006761;28;20044;-61
2022/01/01 11:29:05;;;;;;;10.20;4.68;;;;;;;;;;5011380;28;20099;-70
2022/01/01 11:31:52;;;;;;;5.53;2.90;;;;;;;;;;5026511;28;20396;-62
2022/01/01 11:34:38;;;;;;;6.60;2.78;;;;;;;;;;5008515;28;20164;-62
2022/01/01 11:37:23;;;;;;;9.55;5.47;;;;;;;;;;5011956;28;20048;-61
2022/01/01 11:40:09;;;;;;;12.18;9.07;;;;;;;;;;5020010;28;20026;-60
2022/01/01 11:42:54;;;;;;;8.43;6.80;;;;;;;;;;5020409;28;20490;-62
2022/01/01 11:45:42;;;;;;;7.30;4.18;;;;;;;;;;5006929;28;20034;-62
2022/01/01 11:48:28;;;;;;;6.97;4.15;;;;;;;;;;5012178;28;20076;-61
2022/01/01 11:51:35;;;;;;;7.97;4.57;;;;;;;;;;5017606;28;20065;-63
2022/01/01 11:54:30;;;;;;;11.50;5.82;;;;;;;;;;5016502;28;20504;-63
2022/01/01 11:57:19;;;;;;;14.30;12.90;;;;;;;;;;5017433;28;20652;-62
2022/01/01 12:00:12;;;;;;;9.57;7.68;;;;;;;;;;5013980;28;20026;-65
2022/01/01 12:03:13;;;;;;;29.20;27.10;;;;;;;;;;5032725;28;20409;-63
2022/01/01 12:06:02;;;;;;;10.32;4.50;;;;;;;;;;5016811;28;20029;-62
2022/01/01 12:08:48;;;;;;;8.40;4.30;;;;;;;;;;5017518;28;20083;-65
2022/01/01 12:11:33;;;;;;;9.07;4.68;;;;;;;;;;5019151;28;20041;-63
2022/01/01 12:14:23;;;;;;;12.73;5.43;;;;;;;;;;5022072;28;20394;-63
2022/01/01 12:17:08;;;;;;;;;;;;;;;;;;4998183;28;20065;-62
2022/01/01 12:19:57;;;;;;;12.05;6.88;;;;;;;;;;5013397;28;20012;-62
2022/01/01 12:22:46;;;;;;;10.18;5.97;;;;;;;;;;5017613;28;20029;-64
2022/01/01 12:25:32;;;;;;;9.50;5.72;;;;;;;;;;5014775;28;20041;-67
2022/01/01 12:28:21;;;;;;;9.70;5.82;;;;;;;;;;5017171;28;20116;-62
2022/01/01 12:31:14;;;;;;;12.77;6.07;;;;;;;;;;5009740;28;20511;-63
2022/01/01 12:34:10;;;;;;;9.57;5.50;;;;;;;;;;5008517;28;20072;-62
2022/01/01 12:36:55;;;;;;;9.90;5.32;;;;;;;;;;5016102;28;20180;-63
2022/01/01 12:39:57;;;;;;;8.93;5.80;;;;;;;;;;5016957;28;20028;-62
2022/01/01 12:42:45;;;;;;;10.32;6.07;;;;;;;;;;5016309;28;20029;-70
2022/01/01 12:45:31;;;;;;;11.52;6.22;;;;;;;;;;5024123;28;20038;-68
2022/01/01 12:48:18;;;;;;;10.05;5.65;;;;;;;;;;4996895;28;20028;-65
2022/01/01 12:51:04;;;;;;;11.60;6.40;;;;;;;;;;5012292;28;20170;-64
2022/01/01 12:53:54;;;;;;;9.43;5.63;;;;;;;;;;5016672;28;20052;-66
2022/01/01 12:56:40;;;;;;;13.43;5.38;;;;;;;;;;5015216;28;20033;-65
2022/01/01 12:59:25;;;;;;;10.15;6.38;;;;;;;;;;5016438;28;20505;-68
2022/01/01 13:02:11;;;;;;;12.15;6.13;;;;;;;;;;5028661;28;20036;-64
2022/01/01 13:05:00;;;;;;;9.85;5.53;;;;;;;;;;4996954;28;20022;-65
2022/01/01 13:07:45;;;;;;;13.40;5.97;;;;;;;;;;5007446;28;20112;-62
2022/01/01 13:10:31;;;;;;;10.88;5.68;;;;;;;;;;5016567;28;20553;-62
2022/01/01 13:13:18;;;;;;;9.40;5.82;;;;;;;;;;5009610;28;20041;-64
2022/01/01 13:16:03;;;;;;;12.93;5.80;;;;;;;;;;5013888;28;20360;-64
2022/01/01 13:18:50;;;;;;;39.63;29.90;;;;;;;;;;5029799;28;20052;-69
2022/01/01 13:21:36;;;;;;;17.10;10.20;;;;;;;;;;5016311;28;20030;-64
2022/01/01 13:24:25;;;;;;;12.10;7.82;;;;;;;;;;5010034;28;20042;-62
2022/01/01 13:27:11;;;;;;;9.13;4.97;;;;;;;;;;5011297;28;20030;-61
2022/01/01 13:29:56;;;;;;;7.43;4.28;;;;;;;;;;5002352;28;20041;-60
2022/01/01 13:32:41;;;;;;;9.70;5.38;;;;;;;;;;5014622;28;20053;-61
2022/01/01 13:35:27;;;;;;;9.73;5.55;;;;;;;;;;5016425;28;20026;-61
2022/01/01 13:38:14;;;;;;;12.60;5.68;;;;;;;;;;5014698;28;20048;-68
2022/01/01 13:41:00;;;;;;;11.07;6.20;;;;;;;;;;5015812;28;20017;-67
2022/01/01 13:43:46;;;;;;;11.57;6.50;;;;;;;;;;5008422;28;20044;-69
2022/01/01 13:46:31;;;;;;;12.77;5.80;;;;;;;;;;5009378;28;20311;-68
2022/01/01 13:49:16;;;;;;;10.25;5.20;;;;;;;;;;5007737;28;20029;-69
2022/01/01 13:52:02;;;;;;;13.65;8.23;;;;;;;;;;4996081;28;20095;-68
2022/01/01 13:54:51;;;;;;;16.42;8.13;;;;;;;;;;5008046;28;20033;-68
2022/01/01 13:57:39;;;;;;;12.25;7.63;;;;;;;;;;4995535;28;20182;-62
2022/01/01 14:00:25;;;;;;;14.02;8.65;;;;;;;;;;5004652;28;20035;-63
2022/01/01 14:03:11;;;;;;;25.15;12.23;;;;;;;;;;5028817;28;20060;-66
2022/01/01 14:05:56;;;;;;;45.58;33.70;;;;;;;;;;5027989;28;20071;-63
2022/01/01 14:08:56;;;;;;;17.48;9.18;;;;;;;;;;5015571;28;20108;-64
2022/01/01 14:11:41;;;;;;;;;;;;;;;;;;5015841;28;20091;-65
2022/01/01 14:14:30;;;;;;;12.98;7.80;;;;;;;;;;5013976;28;19951;-67
2022/01/01 14:17:15;;;;;;;16.02;9.63;;;;;;;;;;5015143;28;20728;-63
2022/01/01 14:20:39;;;;;;;18.88;8.98;;;;;;;;;;5012170;28;20026;-62
2022/01/01 14:23:26;;;;;;;13.07;7.65;;;;;;;;;;4955256;28;20035;-63
2022/01/01 14:26:16;;;;;;;17.00;8.65;;;;;;;;;;4954024;28;20030;-66
2022/01/01 14:29:01;;;;;;;12.68;6.65;;;;;;;;;;4954877;28;20172;-62
2022/01/01 14:31:46;;;;;;;13.52;6.80;;;;;;;;;;4948346;29;20078;-63
2022/01/01 14:34:31;;;;;;;12.13;6.10;;;;;;;;;;4935582;29;20031;-71
2022/01/01 14:37:17;;;;;;;13.57;6.93;;;;;;;;;;4954723;28;20042;-64
2022/01/01 14:40:02;;;;;;;11.82;6.13;;;;;;;;;;4953924;28;20022;-63
2022/01/01 14:42:48;;;;;;;11.60;5.88;;;;;;;;;;4954906;28;20031;-62
2022/01/01 14:45:34;;;;;;;9.80;5.53;;;;;;;;;;4937040;28;20037;-65
2022/01/01 14:48:25;;;;;;;10.95;5.93;;;;;;;;;;4954401;28;20035;-63
2022/01/01 14:51:13;;;;;;;10.02;6.38;;;;;;;;;;4953518;28;20042;-64
2022/01/01 14:54:04;;;;;;;10.15;5.97;;;;;;;;;;4994391;28;20029;-68
2022/01/01 14:57:18;;;;;;;10.27;5.60;;;;;;;;;;5007693;28;20037;-67
2022/01/01 15:00:08;;;;;;;9.98;5.95;;;;;;;;;;4995136;28;20128;-70
2022/01/01 15:02:53;;;;;;;11.55;5.78;;;;;;;;;;5021601;28;20026;-68
2022/01/01 15:05:39;;;;;;;9.35;5.28;;;;;;;;;;5014521;28;20033;-66
2022/01/01 15:08:27;;;;;;;10.57;5.22;;;;;;;;;;5013766;28;20033;-68
2022/01/01 15:11:13;;;;;;;13.05;5.65;;;;;;;;;;5017867;28;20029;-63
2022/01/01 15:13:59;;;;;;;9.60;4.32;;;;;;;;;;5032453;28;20033;-60
2022/01/01 15:16:46;;;;;;;8.60;4.78;;;;;;;;;;5017356;28;20501;-61
2022/01/01 15:19:31;;;;;;;12.55;5.57;;;;;;;;;;5018519;28;20116;-61
2022/01/01 15:22:23;;;;;;;10.35;6.47;;;;;;;;;;5017266;28;20037;-63
2022/01/01 15:25:09;;;;;;;12.25;6.90;;;;;;;;;;5026482;28;20084;-62
2022/01/01 15:27:55;;;;;;;10.73;5.57;;;;;;;;;;5017454;28;20049;-62
2022/01/01 15:30:48;;;;;;;11.40;6.32;;;;;;;;;;5018065;28;20503;-66
2022/01/01 15:33:38;;;;;;;39.35;28.30;;;;;;;;;;5010871;28;20692;-66
2022/01/01 15:36:29;;;;;;;12.52;6.75;;;;;;;;;;4984800;28;20060;-67
2022/01/01 15:39:17;;;;;;;12.35;6.72;;;;;;;;;;5027532;28;20026;-68
2022/01/01 15:42:19;;;;;;;9.98;5.00;;;;;;;;;;5017920;28;20029;-67
2022/01/01 15:45:05;;;;;;;14.10;5.07;;;;;;;;;;5001427;28;20177;-66
2022/01/01 15:47:53;;;;;;;11.63;5.60;;;;;;;;;;4999316;28;20116;-63
2022/01/01 15:50:40;;;;;;;14.60;5.35;;;;;;;;;;5017722;28;20120;-67
2022/01/01 15:53:25;;;;;;;13.10;5.35;;;;;;;;;;5016682;28;20048;-65
2022/01/01 15:56:13;;;;;;;8.30;4.97;;;;;;;;;;5021783;28;20025;-64
2022/01/01 15:59:03;;;;;;;8.05;4.90;;;;;;;;;;5012597;28;20036;-64
2022/01/01 16:01:56;;;;;;;10.95;5.35;;;;;;;;;;5042917;28;20044;-64
2022/01/01 16:04:45;;;;;;;10.38;4.22;;;;;;;;;;5017132;28;20037;-68
2022/01/01 16:07:33;;;;;;;7.07;4.70;;;;;;;;;;5017621;28;20392;-66
2022/01/01 16:10:19;;;;;;;12.13;4.97;;;;;;;;;;5010575;28;20084;-65
2022/01/01 16:13:06;;;;;;;11.73;5.85;;;;;;;;;;5011297;28;20033;-66
2022/01/01 16:15:56;;;;;;;13.57;6.35;;;;;;;;;;5028649;28;20241;-66
2022/01/01 16:18:45;;;;;;;10.35;5.93;;;;;;;;;;5030770;28;20094;-66
2022/01/01 16:21:31;;;;;;;11.25;6.15;;;;;;;;;;4997529;28;20390;-66
2022/01/01 16:24:18;;;;;;;11.07;6.10;;;;;;;;;;5012339;28;20025;-65
2022/01/01 16:27:05;;;;;;;11.45;6.55;;;;;;;;;;5010662;28;20504;-66